sensor_id;sensor_type;location;lat;lon;timestamp;temperature;humidity
27016;DHT22;14557;0.000;0.000;2023-03-01T00:01:50;20.20;61.90
27016;DHT22;14557;0.000;0.000;2023-03-01T00:04:15;20.20;61.80
27016;DHT22;14557;0.000;0.000;2023-03-01T00:06:44;20.20;61.80
27016;DHT22;14557;0.000;0.000;2023-03-01T00:09:13;20.20;61.80
27016;DHT22;14557;0.000;0.000;2023-03-01T00:11:39;20.20;61.70
27016;DHT22;14557;0.000;0.000;2023-03-01T00:14:05;20.20;61.60
27016;DHT22;14557;0.000;0.000;2023-03-01T00:16:35;20.10;61.50
27016;DHT22;14557;0.000;0.000;2023-03-01T00:19:01;20.10;61.50
27016;DHT22;14557;0.000;0.000;2023-03-01T00:21:27;20.10;61.50
27016;DHT22;14557;0.000;0.000;2023-03-01T00:23:53;20.10;61.40
27016;DHT22;14557;0.000;0.000;2023-03-01T00:26:19;20.10;61.30
27016;DHT22;14557;0.000;0.000;2023-03-01T00:28:45;20.10;61.20
27016;DHT22;14557;0.000;0.000;2023-03-01T00:31:15;20.10;61.20
27016;DHT22;14557;0.000;0.000;2023-03-01T00:33:41;20.10;61.20
27016;DHT22;14557;0.000;0.000;2023-03-01T00:36:07;20.10;61.20
27016;DHT22;14557;0.000;0.000;2023-03-01T00:38:36;20.10;61.30
27016;DHT22;14557;0.000;0.000;2023-03-01T00:41:03;20.10;61.30
27016;DHT22;14557;0.000;0.000;2023-03-01T00:43:29;20.10;61.50
27016;DHT22;14557;0.000;0.000;2023-03-01T00:45:54;20.10;61.20
27016;DHT22;14557;0.000;0.000;2023-03-01T00:48:20;20.10;61.10
27016;DHT22;14557;0.000;0.000;2023-03-01T00:50:45;20.10;61.20
27016;DHT22;14557;0.000;0.000;2023-03-01T00:53:11;20.10;61.20
27016;DHT22;14557;0.000;0.000;2023-03-01T00:55:36;20.00;61.10
27016;DHT22;14557;0.000;0.000;2023-03-01T00:58:02;20.00;61.10
27016;DHT22;14557;0.000;0.000;2023-03-01T01:00:27;20.00;61.10
27016;DHT22;14557;0.000;0.000;2023-03-01T01:02:53;20.00;61.10
27016;DHT22;14557;0.000;0.000;2023-03-01T01:05:19;20.00;61.00
27016;DHT22;14557;0.000;0.000;2023-03-01T01:07:46;19.90;61.00
27016;DHT22;14557;0.000;0.000;2023-03-01T01:10:12;20.00;61.00
27016;DHT22;14557;0.000;0.000;2023-03-01T01:12:43;19.90;61.00
27016;DHT22;14557;0.000;0.000;2023-03-01T01:15:09;19.90;60.90
27016;DHT22;14557;0.000;0.000;2023-03-01T01:17:37;19.90;60.80
27016;DHT22;14557;0.000;0.000;2023-03-01T01:20:03;19.90;60.80
27016;DHT22;14557;0.000;0.000;2023-03-01T01:22:28;19.90;60.80
27016;DHT22;14557;0.000;0.000;2023-03-01T01:24:54;19.90;60.80
27016;DHT22;14557;0.000;0.000;2023-03-01T01:27:19;19.90;60.70
27016;DHT22;14557;0.000;0.000;2023-03-01T01:29:45;19.90;60.70
27016;DHT22;14557;0.000;0.000;2023-03-01T01:32:10;19.90;60.70
27016;DHT22;14557;0.000;0.000;2023-03-01T01:34:36;19.80;60.60
27016;DHT22;14557;0.000;0.000;2023-03-01T01:37:01;19.90;60.60
27016;DHT22;14557;0.000;0.000;2023-03-01T01:39:28;19.80;60.50
27016;DHT22;14557;0.000;0.000;2023-03-01T01:41:54;19.80;60.50
27016;DHT22;14557;0.000;0.000;2023-03-01T01:44:26;19.80;60.50
27016;DHT22;14557;0.000;0.000;2023-03-01T01:49:36;19.80;60.40
27016;DHT22;14557;0.000;0.000;2023-03-01T01:52:10;19.80;60.40
27016;DHT22;14557;0.000;0.000;2023-03-01T01:57:02;19.80;60.30
27016;DHT22;14557;0.000;0.000;2023-03-01T01:59:29;19.70;60.30
27016;DHT22;14557;0.000;0.000;2023-03-01T02:01:55;19.80;60.30
27016;DHT22;14557;0.000;0.000;2023-03-01T02:04:23;19.80;60.30
27016;DHT22;14557;0.000;0.000;2023-03-01T02:06:51;19.70;60.10
27016;DHT22;14557;0.000;0.000;2023-03-01T02:09:18;19.70;60.20
27016;DHT22;14557;0.000;0.000;2023-03-01T02:11:45;19.70;60.10
27016;DHT22;14557;0.000;0.000;2023-03-01T02:14:12;19.70;60.10
27016;DHT22;14557;0.000;0.000;2023-03-01T02:16:37;19.70;60.10
27016;DHT22;14557;0.000;0.000;2023-03-01T02:19:03;19.70;60.10
27016;DHT22;14557;0.000;0.000;2023-03-01T02:21:34;19.70;60.00
27016;DHT22;14557;0.000;0.000;2023-03-01T02:24:27;19.70;60.00
27016;DHT22;14557;0.000;0.000;2023-03-01T02:26:49;19.70;60.00
27016;DHT22;14557;0.000;0.000;2023-03-01T02:29:15;19.70;60.00
27016;DHT22;14557;0.000;0.000;2023-03-01T02:31:41;19.70;60.00
27016;DHT22;14557;0.000;0.000;2023-03-01T02:34:07;19.70;60.00
27016;DHT22;14557;0.000;0.000;2023-03-01T02:36:40;19.70;60.00
27016;DHT22;14557;0.000;0.000;2023-03-01T02:39:06;19.60;59.90
27016;DHT22;14557;0.000;0.000;2023-03-01T02:41:34;19.70;60.00
27016;DHT22;14557;0.000;0.000;2023-03-01T02:44:01;19.60;59.90
27016;DHT22;14557;0.000;0.000;2023-03-01T02:46:26;19.60;59.80
27016;DHT22;14557;0.000;0.000;2023-03-01T02:48:53;19.60;59.80
27016;DHT22;14557;0.000;0.000;2023-03-01T02:56:41;19.60;59.80
27016;DHT22;14557;0.000;0.000;2023-03-01T02:59:08;19.60;59.80
27016;DHT22;14557;0.000;0.000;2023-03-01T03:01:34;19.60;59.90
27016;DHT22;14557;0.000;0.000;2023-03-01T03:04:06;19.60;59.70
27016;DHT22;14557;0.000;0.000;2023-03-01T03:06:32;19.50;59.70
27016;DHT22;14557;0.000;0.000;2023-03-01T03:08:58;19.60;59.80
27016;DHT22;14557;0.000;0.000;2023-03-01T03:11:24;19.50;59.80
27016;DHT22;14557;0.000;0.000;2023-03-01T03:13:50;19.50;59.70
27016;DHT22;14557;0.000;0.000;2023-03-01T03:16:16;19.50;59.80
27016;DHT22;14557;0.000;0.000;2023-03-01T03:18:41;19.50;59.70
27016;DHT22;14557;0.000;0.000;2023-03-01T03:21:08;19.50;59.70
27016;DHT22;14557;0.000;0.000;2023-03-01T03:23:35;19.50;59.60
27016;DHT22;14557;0.000;0.000;2023-03-01T03:26:01;19.50;59.60
27016;DHT22;14557;0.000;0.000;2023-03-01T03:28:29;19.50;59.60
27016;DHT22;14557;0.000;0.000;2023-03-01T03:30:56;19.50;59.60
27016;DHT22;14557;0.000;0.000;2023-03-01T03:33:21;19.40;59.50
27016;DHT22;14557;0.000;0.000;2023-03-01T03:35:47;19.50;59.50
27016;DHT22;14557;0.000;0.000;2023-03-01T03:38:14;19.40;59.50
27016;DHT22;14557;0.000;0.000;2023-03-01T03:43:09;19.40;59.40
27016;DHT22;14557;0.000;0.000;2023-03-01T03:45:35;19.40;59.40
27016;DHT22;14557;0.000;0.000;2023-03-01T03:48:02;19.40;59.40
27016;DHT22;14557;0.000;0.000;2023-03-01T03:50:27;19.40;59.40
27016;DHT22;14557;0.000;0.000;2023-03-01T03:52:53;19.40;59.30
27016;DHT22;14557;0.000;0.000;2023-03-01T03:55:19;19.40;59.30
27016;DHT22;14557;0.000;0.000;2023-03-01T03:57:45;19.40;59.30
27016;DHT22;14557;0.000;0.000;2023-03-01T04:00:15;19.40;59.30
27016;DHT22;14557;0.000;0.000;2023-03-01T04:02:41;19.40;59.20
27016;DHT22;14557;0.000;0.000;2023-03-01T04:05:07;19.40;59.20
27016;DHT22;14557;0.000;0.000;2023-03-01T04:07:34;19.40;59.20
27016;DHT22;14557;0.000;0.000;2023-03-01T04:10:00;19.30;59.10
27016;DHT22;14557;0.000;0.000;2023-03-01T04:12:26;19.30;59.10
27016;DHT22;14557;0.000;0.000;2023-03-01T04:14:51;19.30;59.10
27016;DHT22;14557;0.000;0.000;2023-03-01T04:17:17;19.30;59.10
27016;DHT22;14557;0.000;0.000;2023-03-01T04:19:44;19.30;59.10
27016;DHT22;14557;0.000;0.000;2023-03-01T04:22:14;19.30;59.00
27016;DHT22;14557;0.000;0.000;2023-03-01T04:24:42;19.30;59.00
27016;DHT22;14557;0.000;0.000;2023-03-01T04:27:08;19.30;59.00
27016;DHT22;14557;0.000;0.000;2023-03-01T04:29:34;19.30;58.90
27016;DHT22;14557;0.000;0.000;2023-03-01T04:32:00;19.30;58.90
27016;DHT22;14557;0.000;0.000;2023-03-01T04:34:25;19.30;58.90
27016;DHT22;14557;0.000;0.000;2023-03-01T04:36:52;19.30;58.80
27016;DHT22;14557;0.000;0.000;2023-03-01T04:39:18;19.30;58.80
27016;DHT22;14557;0.000;0.000;2023-03-01T04:41:43;19.30;58.80
27016;DHT22;14557;0.000;0.000;2023-03-01T04:44:09;19.30;58.70
27016;DHT22;14557;0.000;0.000;2023-03-01T04:46:35;19.20;58.70
27016;DHT22;14557;0.000;0.000;2023-03-01T04:49:00;19.20;58.70
27016;DHT22;14557;0.000;0.000;2023-03-01T04:51:26;19.20;58.70
27016;DHT22;14557;0.000;0.000;2023-03-01T04:53:51;19.20;58.70
27016;DHT22;14557;0.000;0.000;2023-03-01T04:56:17;19.20;58.60
27016;DHT22;14557;0.000;0.000;2023-03-01T04:58:48;19.20;58.60
27016;DHT22;14557;0.000;0.000;2023-03-01T05:01:17;19.10;58.60
27016;DHT22;14557;0.000;0.000;2023-03-01T05:03:44;19.10;58.60
27016;DHT22;14557;0.000;0.000;2023-03-01T05:06:10;19.10;58.60
27016;DHT22;14557;0.000;0.000;2023-03-01T05:08:37;19.10;58.60
27016;DHT22;14557;0.000;0.000;2023-03-01T05:11:03;19.10;58.60
27016;DHT22;14557;0.000;0.000;2023-03-01T05:13:28;19.10;58.60
27016;DHT22;14557;0.000;0.000;2023-03-01T05:18:20;19.10;58.50
27016;DHT22;14557;0.000;0.000;2023-03-01T05:20:45;19.10;58.50
27016;DHT22;14557;0.000;0.000;2023-03-01T05:23:12;19.10;58.40
27016;DHT22;14557;0.000;0.000;2023-03-01T05:25:38;19.10;58.40
27016;DHT22;14557;0.000;0.000;2023-03-01T05:28:06;19.10;58.30
27016;DHT22;14557;0.000;0.000;2023-03-01T05:30:32;19.00;58.30
27016;DHT22;14557;0.000;0.000;2023-03-01T05:32:58;19.00;58.30
27016;DHT22;14557;0.000;0.000;2023-03-01T05:35:23;19.00;58.30
27016;DHT22;14557;0.000;0.000;2023-03-01T05:37:49;19.00;58.30
27016;DHT22;14557;0.000;0.000;2023-03-01T05:40:16;19.00;58.30
27016;DHT22;14557;0.000;0.000;2023-03-01T05:43:02;19.00;58.30
27016;DHT22;14557;0.000;0.000;2023-03-01T05:45:30;19.00;58.30
27016;DHT22;14557;0.000;0.000;2023-03-01T05:47:57;18.90;58.10
27016;DHT22;14557;0.000;0.000;2023-03-01T05:50:25;18.90;58.10
27016;DHT22;14557;0.000;0.000;2023-03-01T05:52:51;19.00;58.10
27016;DHT22;14557;0.000;0.000;2023-03-01T05:55:18;19.00;58.10
27016;DHT22;14557;0.000;0.000;2023-03-01T05:57:44;18.90;58.10
27016;DHT22;14557;0.000;0.000;2023-03-01T06:00:10;18.90;58.00
27016;DHT22;14557;0.000;0.000;2023-03-01T06:02:36;18.90;58.00
27016;DHT22;14557;0.000;0.000;2023-03-01T06:05:03;18.90;58.00
27016;DHT22;14557;0.000;0.000;2023-03-01T06:07:29;18.90;58.00
27016;DHT22;14557;0.000;0.000;2023-03-01T06:09:54;18.90;57.90
27016;DHT22;14557;0.000;0.000;2023-03-01T06:12:20;18.80;57.90
27016;DHT22;14557;0.000;0.000;2023-03-01T06:14:46;18.80;58.00
27016;DHT22;14557;0.000;0.000;2023-03-01T06:17:12;18.80;57.90
27016;DHT22;14557;0.000;0.000;2023-03-01T06:19:38;18.80;58.00
27016;DHT22;14557;0.000;0.000;2023-03-01T06:22:03;18.80;57.90
27016;DHT22;14557;0.000;0.000;2023-03-01T06:24:29;18.80;57.90
27016;DHT22;14557;0.000;0.000;2023-03-01T06:26:54;18.80;57.90
27016;DHT22;14557;0.000;0.000;2023-03-01T06:29:21;18.80;57.90
27016;DHT22;14557;0.000;0.000;2023-03-01T06:31:48;18.80;57.90
27016;DHT22;14557;0.000;0.000;2023-03-01T06:34:13;18.80;57.90
27016;DHT22;14557;0.000;0.000;2023-03-01T06:36:39;18.80;57.90
27016;DHT22;14557;0.000;0.000;2023-03-01T06:39:05;18.80;57.90
27016;DHT22;14557;0.000;0.000;2023-03-01T06:41:31;18.80;57.80
27016;DHT22;14557;0.000;0.000;2023-03-01T06:43:56;18.80;57.90
27016;DHT22;14557;0.000;0.000;2023-03-01T06:46:22;18.70;57.80
27016;DHT22;14557;0.000;0.000;2023-03-01T06:48:47;18.70;57.70
27016;DHT22;14557;0.000;0.000;2023-03-01T06:51:13;18.70;57.70
27016;DHT22;14557;0.000;0.000;2023-03-01T06:53:38;18.70;57.70
27016;DHT22;14557;0.000;0.000;2023-03-01T06:56:04;18.70;57.70
27016;DHT22;14557;0.000;0.000;2023-03-01T06:58:29;18.70;57.70
27016;DHT22;14557;0.000;0.000;2023-03-01T07:00:55;18.60;57.60
27016;DHT22;14557;0.000;0.000;2023-03-01T07:03:21;18.70;57.60
27016;DHT22;14557;0.000;0.000;2023-03-01T07:05:48;18.60;57.60
27016;DHT22;14557;0.000;0.000;2023-03-01T07:08:14;18.60;57.50
27016;DHT22;14557;0.000;0.000;2023-03-01T07:10:39;18.60;57.50
27016;DHT22;14557;0.000;0.000;2023-03-01T07:13:05;18.60;57.40
27016;DHT22;14557;0.000;0.000;2023-03-01T07:15:32;18.60;57.40
27016;DHT22;14557;0.000;0.000;2023-03-01T07:17:58;18.60;57.40
27016;DHT22;14557;0.000;0.000;2023-03-01T07:20:23;18.60;57.50
27016;DHT22;14557;0.000;0.000;2023-03-01T07:22:51;18.50;57.40
27016;DHT22;14557;0.000;0.000;2023-03-01T07:25:16;18.50;57.40
27016;DHT22;14557;0.000;0.000;2023-03-01T07:27:42;18.60;57.50
27016;DHT22;14557;0.000;0.000;2023-03-01T07:30:08;18.60;57.50
27016;DHT22;14557;0.000;0.000;2023-03-01T07:32:33;18.60;57.50
27016;DHT22;14557;0.000;0.000;2023-03-01T07:34:59;18.50;57.50
27016;DHT22;14557;0.000;0.000;2023-03-01T07:37:25;18.50;57.50
27016;DHT22;14557;0.000;0.000;2023-03-01T07:39:50;18.50;57.50
27016;DHT22;14557;0.000;0.000;2023-03-01T07:42:16;18.50;57.50
27016;DHT22;14557;0.000;0.000;2023-03-01T07:44:41;18.50;57.50
27016;DHT22;14557;0.000;0.000;2023-03-01T07:47:07;18.50;57.50
27016;DHT22;14557;0.000;0.000;2023-03-01T07:49:32;18.50;57.50
27016;DHT22;14557;0.000;0.000;2023-03-01T07:51:58;18.50;57.50
27016;DHT22;14557;0.000;0.000;2023-03-01T07:54:23;18.50;57.40
27016;DHT22;14557;0.000;0.000;2023-03-01T07:56:49;18.50;57.50
27016;DHT22;14557;0.000;0.000;2023-03-01T07:59:14;18.50;57.40
27016;DHT22;14557;0.000;0.000;2023-03-01T08:01:40;18.50;57.40
27016;DHT22;14557;0.000;0.000;2023-03-01T08:04:07;18.50;57.50
27016;DHT22;14557;0.000;0.000;2023-03-01T08:06:33;18.50;57.40
27016;DHT22;14557;0.000;0.000;2023-03-01T08:08:59;18.50;57.40
27016;DHT22;14557;0.000;0.000;2023-03-01T08:11:24;18.50;57.30
27016;DHT22;14557;0.000;0.000;2023-03-01T08:13:50;18.50;57.40
27016;DHT22;14557;0.000;0.000;2023-03-01T08:16:15;18.50;57.40
27016;DHT22;14557;0.000;0.000;2023-03-01T08:18:41;18.50;60.20
27016;DHT22;14557;0.000;0.000;2023-03-01T08:21:11;18.60;61.10
27016;DHT22;14557;0.000;0.000;2023-03-01T08:23:37;18.70;60.80
27016;DHT22;14557;0.000;0.000;2023-03-01T08:26:13;18.60;60.80
27016;DHT22;14557;0.000;0.000;2023-03-01T08:28:39;18.70;60.60
27016;DHT22;14557;0.000;0.000;2023-03-01T08:31:18;18.70;60.10
27016;DHT22;14557;0.000;0.000;2023-03-01T08:33:45;18.80;61.00
27016;DHT22;14557;0.000;0.000;2023-03-01T08:36:16;19.00;60.90
27016;DHT22;14557;0.000;0.000;2023-03-01T08:38:42;19.10;59.60
27016;DHT22;14557;0.000;0.000;2023-03-01T08:41:07;19.10;59.20
27016;DHT22;14557;0.000;0.000;2023-03-01T08:43:33;19.00;58.90
27016;DHT22;14557;0.000;0.000;2023-03-01T08:45:58;18.90;58.50
27016;DHT22;14557;0.000;0.000;2023-03-01T08:48:24;18.90;59.00
27016;DHT22;14557;0.000;0.000;2023-03-01T08:50:50;18.80;59.20
27016;DHT22;14557;0.000;0.000;2023-03-01T08:53:15;18.90;61.40
27016;DHT22;14557;0.000;0.000;2023-03-01T08:55:41;19.10;66.00
27016;DHT22;14557;0.000;0.000;2023-03-01T08:58:06;19.10;62.70
27016;DHT22;14557;0.000;0.000;2023-03-01T09:00:32;19.20;60.70
27016;DHT22;14557;0.000;0.000;2023-03-01T09:03:00;19.20;61.00
27016;DHT22;14557;0.000;0.000;2023-03-01T09:05:25;19.20;59.90
27016;DHT22;14557;0.000;0.000;2023-03-01T09:07:51;19.20;59.40
27016;DHT22;14557;0.000;0.000;2023-03-01T09:10:16;19.30;60.80
27016;DHT22;14557;0.000;0.000;2023-03-01T09:12:42;19.30;59.50
27016;DHT22;14557;0.000;0.000;2023-03-01T09:15:08;19.40;60.00
27016;DHT22;14557;0.000;0.000;2023-03-01T09:17:34;19.40;59.70
27016;DHT22;14557;0.000;0.000;2023-03-01T09:19:59;19.50;59.50
27016;DHT22;14557;0.000;0.000;2023-03-01T09:22:25;19.50;59.30
27016;DHT22;14557;0.000;0.000;2023-03-01T09:24:50;19.50;59.20
27016;DHT22;14557;0.000;0.000;2023-03-01T09:27:16;19.50;59.30
27016;DHT22;14557;0.000;0.000;2023-03-01T09:29:44;19.50;59.20
27016;DHT22;14557;0.000;0.000;2023-03-01T09:32:09;19.50;59.00
27016;DHT22;14557;0.000;0.000;2023-03-01T09:34:35;19.40;58.80
27016;DHT22;14557;0.000;0.000;2023-03-01T09:37:23;19.50;58.70
27016;DHT22;14557;0.000;0.000;2023-03-01T09:39:49;19.40;58.80
27016;DHT22;14557;0.000;0.000;2023-03-01T09:42:14;19.40;59.30
27016;DHT22;14557;0.000;0.000;2023-03-01T09:44:46;19.40;59.00
27016;DHT22;14557;0.000;0.000;2023-03-01T09:47:15;19.40;58.70
27016;DHT22;14557;0.000;0.000;2023-03-01T09:49:42;19.40;59.60
27016;DHT22;14557;0.000;0.000;2023-03-01T09:54:58;19.50;60.60
27016;DHT22;14557;0.000;0.000;2023-03-01T09:57:28;19.50;60.50
27016;DHT22;14557;0.000;0.000;2023-03-01T10:04:47;19.40;60.70
27016;DHT22;14557;0.000;0.000;2023-03-01T10:08:02;19.50;60.50
27016;DHT22;14557;0.000;0.000;2023-03-01T10:09:59;19.50;60.20
27016;DHT22;14557;0.000;0.000;2023-03-01T10:12:27;19.50;61.20
27016;DHT22;14557;0.000;0.000;2023-03-01T10:15:06;19.50;61.30
27016;DHT22;14557;0.000;0.000;2023-03-01T10:17:43;19.40;60.50
27016;DHT22;14557;0.000;0.000;2023-03-01T10:20:19;19.50;60.20
27016;DHT22;14557;0.000;0.000;2023-03-01T10:22:45;19.40;59.90
27016;DHT22;14557;0.000;0.000;2023-03-01T10:25:16;19.40;59.60
27016;DHT22;14557;0.000;0.000;2023-03-01T10:27:49;19.40;59.50
27016;DHT22;14557;0.000;0.000;2023-03-01T10:30:17;19.40;59.50
27016;DHT22;14557;0.000;0.000;2023-03-01T10:32:45;19.50;59.30
27016;DHT22;14557;0.000;0.000;2023-03-01T10:37:58;19.50;59.10
27016;DHT22;14557;0.000;0.000;2023-03-01T10:40:28;19.50;59.00
27016;DHT22;14557;0.000;0.000;2023-03-01T10:42:54;19.50;59.10
27016;DHT22;14557;0.000;0.000;2023-03-01T10:45:38;19.50;59.20
27016;DHT22;14557;0.000;0.000;2023-03-01T10:50:40;19.50;58.90
27016;DHT22;14557;0.000;0.000;2023-03-01T10:53:51;19.50;58.80
27016;DHT22;14557;0.000;0.000;2023-03-01T10:56:08;19.50;58.70
27016;DHT22;14557;0.000;0.000;2023-03-01T10:58:34;19.50;58.80
27016;DHT22;14557;0.000;0.000;2023-03-01T11:01:03;19.50;58.70
27016;DHT22;14557;0.000;0.000;2023-03-01T11:08:31;19.50;59.10
27016;DHT22;14557;0.000;0.000;2023-03-01T11:21:36;19.60;61.30
27016;DHT22;14557;0.000;0.000;2023-03-01T11:24:03;19.70;65.90
27016;DHT22;14557;0.000;0.000;2023-03-01T11:26:29;19.70;65.80
27016;DHT22;14557;0.000;0.000;2023-03-01T11:28:56;19.70;70.60
27016;DHT22;14557;0.000;0.000;2023-03-01T11:31:23;19.80;70.70
27016;DHT22;14557;0.000;0.000;2023-03-01T11:38:46;19.80;69.60
27016;DHT22;14557;0.000;0.000;2023-03-01T11:41:16;19.80;71.10
27016;DHT22;14557;0.000;0.000;2023-03-01T11:43:50;19.90;75.20
27016;DHT22;14557;0.000;0.000;2023-03-01T11:51:38;20.10;75.80
27016;DHT22;14557;0.000;0.000;2023-03-01T11:56:36;20.10;68.10
27016;DHT22;14557;0.000;0.000;2023-03-01T12:06:25;20.10;65.30
27016;DHT22;14557;0.000;0.000;2023-03-01T12:11:41;20.10;64.60
27016;DHT22;14557;0.000;0.000;2023-03-01T12:14:14;20.10;64.10
27016;DHT22;14557;0.000;0.000;2023-03-01T12:22:01;20.00;62.80
27016;DHT22;14557;0.000;0.000;2023-03-01T12:24:39;20.00;62.40
27016;DHT22;14557;0.000;0.000;2023-03-01T12:29:34;20.00;61.20
27016;DHT22;14557;0.000;0.000;2023-03-01T12:32:28;20.00;66.70
27016;DHT22;14557;0.000;0.000;2023-03-01T12:50:28;20.00;62.60
27016;DHT22;14557;0.000;0.000;2023-03-01T12:52:57;20.00;61.60
27016;DHT22;14557;0.000;0.000;2023-03-01T12:55:28;20.00;61.00
27016;DHT22;14557;0.000;0.000;2023-03-01T12:58:00;20.00;62.90
27016;DHT22;14557;0.000;0.000;2023-03-01T13:00:38;20.00;62.30
27016;DHT22;14557;0.000;0.000;2023-03-01T13:03:10;20.00;61.50
27016;DHT22;14557;0.000;0.000;2023-03-01T13:10:43;19.90;60.80
27016;DHT22;14557;0.000;0.000;2023-03-01T13:15:42;19.90;60.60
27016;DHT22;14557;0.000;0.000;2023-03-01T13:23:12;19.90;60.10
27016;DHT22;14557;0.000;0.000;2023-03-01T13:25:59;19.90;60.20
27016;DHT22;14557;0.000;0.000;2023-03-01T13:30:59;19.90;59.80
27016;DHT22;14557;0.000;0.000;2023-03-01T13:35:56;19.80;59.70
27016;DHT22;14557;0.000;0.000;2023-03-01T13:41:09;19.90;59.60
27016;DHT22;14557;0.000;0.000;2023-03-01T13:43:35;19.90;59.50
27016;DHT22;14557;0.000;0.000;2023-03-01T13:46:02;19.90;59.30
27016;DHT22;14557;0.000;0.000;2023-03-01T13:48:32;19.90;59.10
27016;DHT22;14557;0.000;0.000;2023-03-01T13:50:59;19.90;58.40
27016;DHT22;14557;0.000;0.000;2023-03-01T13:53:28;19.80;58.10
27016;DHT22;14557;0.000;0.000;2023-03-01T13:55:55;19.80;58.30
27016;DHT22;14557;0.000;0.000;2023-03-01T13:58:25;19.80;58.10
27016;DHT22;14557;0.000;0.000;2023-03-01T14:00:55;19.80;58.10
27016;DHT22;14557;0.000;0.000;2023-03-01T14:03:21;19.80;57.70
27016;DHT22;14557;0.000;0.000;2023-03-01T14:08:34;19.80;57.30
27016;DHT22;14557;0.000;0.000;2023-03-01T14:11:06;19.70;57.20
27016;DHT22;14557;0.000;0.000;2023-03-01T14:16:08;19.70;56.90
27016;DHT22;14557;0.000;0.000;2023-03-01T14:18:39;19.70;56.80
27016;DHT22;14557;0.000;0.000;2023-03-01T14:21:09;19.70;56.20
27016;DHT22;14557;0.000;0.000;2023-03-01T14:23:34;19.70;56.30
27016;DHT22;14557;0.000;0.000;2023-03-01T14:26:01;19.70;56.40
27016;DHT22;14557;0.000;0.000;2023-03-01T14:28:28;19.60;56.20
27016;DHT22;14557;0.000;0.000;2023-03-01T14:30:56;19.60;56.10
27016;DHT22;14557;0.000;0.000;2023-03-01T14:33:25;19.60;56.00
27016;DHT22;14557;0.000;0.000;2023-03-01T14:35:53;19.60;56.30
27016;DHT22;14557;0.000;0.000;2023-03-01T14:38:23;19.60;56.60
27016;DHT22;14557;0.000;0.000;2023-03-01T14:40:54;19.60;57.00
27016;DHT22;14557;0.000;0.000;2023-03-01T14:43:22;19.70;57.70
27016;DHT22;14557;0.000;0.000;2023-03-01T14:45:49;19.70;57.30
27016;DHT22;14557;0.000;0.000;2023-03-01T14:48:15;19.60;57.10
27016;DHT22;14557;0.000;0.000;2023-03-01T14:50:42;19.70;57.20
27016;DHT22;14557;0.000;0.000;2023-03-01T14:53:14;19.60;57.00
27016;DHT22;14557;0.000;0.000;2023-03-01T14:55:42;19.60;56.90
27016;DHT22;14557;0.000;0.000;2023-03-01T14:58:13;19.60;56.80
27016;DHT22;14557;0.000;0.000;2023-03-01T15:00:39;19.70;56.40
27016;DHT22;14557;0.000;0.000;2023-03-01T15:03:12;19.60;56.60
27016;DHT22;14557;0.000;0.000;2023-03-01T15:05:39;19.60;56.60
27016;DHT22;14557;0.000;0.000;2023-03-01T15:08:04;19.60;56.70
27016;DHT22;14557;0.000;0.000;2023-03-01T15:10:31;19.60;56.80
27016;DHT22;14557;0.000;0.000;2023-03-01T15:13:13;19.60;56.70
27016;DHT22;14557;0.000;0.000;2023-03-01T15:15:40;19.70;57.80
27016;DHT22;14557;0.000;0.000;2023-03-01T15:18:13;19.70;57.90
27016;DHT22;14557;0.000;0.000;2023-03-01T15:20:40;19.70;57.70
27016;DHT22;14557;0.000;0.000;2023-03-01T15:23:05;19.70;57.60
27016;DHT22;14557;0.000;0.000;2023-03-01T15:25:31;19.70;57.60
27016;DHT22;14557;0.000;0.000;2023-03-01T15:27:58;19.70;57.50
27016;DHT22;14557;0.000;0.000;2023-03-01T15:30:42;19.70;57.50
27016;DHT22;14557;0.000;0.000;2023-03-01T15:35:55;19.70;57.70
27016;DHT22;14557;0.000;0.000;2023-03-01T15:40:50;19.70;57.60
27016;DHT22;14557;0.000;0.000;2023-03-01T15:45:59;19.70;57.70
27016;DHT22;14557;0.000;0.000;2023-03-01T15:48:26;19.70;57.70
27016;DHT22;14557;0.000;0.000;2023-03-01T15:50:58;19.70;57.70
27016;DHT22;14557;0.000;0.000;2023-03-01T15:53:24;19.70;57.80
27016;DHT22;14557;0.000;0.000;2023-03-01T15:55:52;19.70;57.90
27016;DHT22;14557;0.000;0.000;2023-03-01T15:58:24;19.70;57.80
27016;DHT22;14557;0.000;0.000;2023-03-01T16:00:50;19.70;57.90
27016;DHT22;14557;0.000;0.000;2023-03-01T16:03:21;19.70;57.90
27016;DHT22;14557;0.000;0.000;2023-03-01T16:05:47;19.70;57.60
27016;DHT22;14557;0.000;0.000;2023-03-01T16:08:13;19.70;57.80
27016;DHT22;14557;0.000;0.000;2023-03-01T16:10:40;19.70;57.80
27016;DHT22;14557;0.000;0.000;2023-03-01T16:13:05;19.70;57.90
27016;DHT22;14557;0.000;0.000;2023-03-01T16:15:32;19.70;57.80
27016;DHT22;14557;0.000;0.000;2023-03-01T16:17:59;19.70;57.80
27016;DHT22;14557;0.000;0.000;2023-03-01T16:20:25;19.70;57.80
27016;DHT22;14557;0.000;0.000;2023-03-01T16:22:50;19.70;57.80
27016;DHT22;14557;0.000;0.000;2023-03-01T16:25:17;19.70;57.80
27016;DHT22;14557;0.000;0.000;2023-03-01T16:27:44;19.70;57.70
27016;DHT22;14557;0.000;0.000;2023-03-01T16:30:10;19.70;57.80
27016;DHT22;14557;0.000;0.000;2023-03-01T16:32:39;19.70;57.80
27016;DHT22;14557;0.000;0.000;2023-03-01T16:35:06;19.70;57.90
27016;DHT22;14557;0.000;0.000;2023-03-01T16:37:32;19.80;58.10
27016;DHT22;14557;0.000;0.000;2023-03-01T16:39:58;19.80;57.90
27016;DHT22;14557;0.000;0.000;2023-03-01T16:42:23;19.80;57.80
27016;DHT22;14557;0.000;0.000;2023-03-01T16:44:53;19.70;58.20
27016;DHT22;14557;0.000;0.000;2023-03-01T16:47:19;19.70;57.70
27016;DHT22;14557;0.000;0.000;2023-03-01T16:49:44;19.70;57.70
27016;DHT22;14557;0.000;0.000;2023-03-01T16:52:10;19.70;57.70
27016;DHT22;14557;0.000;0.000;2023-03-01T16:54:36;19.70;57.90
27016;DHT22;14557;0.000;0.000;2023-03-01T16:57:02;19.70;58.10
27016;DHT22;14557;0.000;0.000;2023-03-01T16:59:27;19.70;57.80
27016;DHT22;14557;0.000;0.000;2023-03-01T17:01:53;19.80;57.80
27016;DHT22;14557;0.000;0.000;2023-03-01T17:04:18;19.80;58.10
27016;DHT22;14557;0.000;0.000;2023-03-01T17:06:44;19.70;58.20
27016;DHT22;14557;0.000;0.000;2023-03-01T17:09:12;19.70;58.20
27016;DHT22;14557;0.000;0.000;2023-03-01T17:11:37;19.80;58.80
27016;DHT22;14557;0.000;0.000;2023-03-01T17:14:03;19.80;58.40
27016;DHT22;14557;0.000;0.000;2023-03-01T17:16:28;19.80;58.20
27016;DHT22;14557;0.000;0.000;2023-03-01T17:18:54;19.70;58.20
27016;DHT22;14557;0.000;0.000;2023-03-01T17:21:20;19.70;58.50
27016;DHT22;14557;0.000;0.000;2023-03-01T17:23:45;19.70;58.40
27016;DHT22;14557;0.000;0.000;2023-03-01T17:26:11;19.70;58.40
27016;DHT22;14557;0.000;0.000;2023-03-01T17:28:37;19.70;58.70
27016;DHT22;14557;0.000;0.000;2023-03-01T17:31:04;19.70;58.60
27016;DHT22;14557;0.000;0.000;2023-03-01T17:33:29;19.70;60.10
27016;DHT22;14557;0.000;0.000;2023-03-01T17:35:55;19.80;60.10
27016;DHT22;14557;0.000;0.000;2023-03-01T17:38:21;19.80;60.90
27016;DHT22;14557;0.000;0.000;2023-03-01T17:40:48;19.80;60.70
27016;DHT22;14557;0.000;0.000;2023-03-01T17:43:14;19.90;60.90
27016;DHT22;14557;0.000;0.000;2023-03-01T17:45:40;19.90;62.90
27016;DHT22;14557;0.000;0.000;2023-03-01T17:48:08;19.90;62.80
27016;DHT22;14557;0.000;0.000;2023-03-01T17:50:35;19.90;64.30